Time;durP1;ratioP1;P1;durP2;ratioP2;P2;SDS_P1;SDS_P2;PMS_P1;PMS_P2;Temp;Humidity;BMP_temperature;BMP_pressure;BME280_temperature;BME280_humidity;BME280_pressure;Samples;Min_cycle;Max_cycle;Signal;HPM_P1;HPM_P2
2023/11/06 00:01:08;;;;;;;2.83;0.55;;;;;;;;;;5050275;28;20037;-77
2023/11/06 00:03:33;;;;;;;5.85;0.95;;;;;;;;;;5048550;28;20033;-78
2023/11/06 00:05:59;;;;;;;3.63;1.30;;;;;;;;;;5047727;28;20024;-77
2023/11/06 00:08:26;;;;;;;5.38;0.68;;;;;;;;;;5044657;28;20025;-78
2023/11/06 00:10:52;;;;;;;1.85;0.57;;;;;;;;;;5047957;28;20017;-77
2023/11/06 00:13:18;;;;;;;2.33;0.50;;;;;;;;;;5051994;28;20021;-77
2023/11/06 00:15:44;;;;;;;2.00;0.60;;;;;;;;;;5033108;28;20577;-77
2023/11/06 00:18:09;;;;;;;3.25;0.80;;;;;;;;;;5049256;28;20393;-77
2023/11/06 00:20:34;;;;;;;4.10;0.47;;;;;;;;;;5034898;28;20456;-77
2023/11/06 00:22:59;;;;;;;3.28;0.52;;;;;;;;;;5034817;28;20374;-77
2023/11/06 00:25:25;;;;;;;2.88;0.57;;;;;;;;;;5034742;28;20032;-77
2023/11/06 00:27:50;;;;;;;1.45;0.30;;;;;;;;;;5033495;28;20593;-77
2023/11/06 00:30:16;;;;;;;3.45;0.60;;;;;;;;;;5034759;28;20021;-78
2023/11/06 00:32:41;;;;;;;3.65;0.70;;;;;;;;;;5048431;28;20013;-78
2023/11/06 00:35:09;;;;;;;2.08;0.50;;;;;;;;;;5032038;28;20378;-77
2023/11/06 00:37:34;;;;;;;3.25;0.80;;;;;;;;;;5040497;28;20116;-77
2023/11/06 00:39:59;;;;;;;3.30;0.55;;;;;;;;;;5048112;28;20457;-77
2023/11/06 00:42:24;;;;;;;4.15;0.63;;;;;;;;;;5034440;28;20029;-77
2023/11/06 00:44:50;;;;;;;3.30;0.70;;;;;;;;;;5050141;28;20025;-78
2023/11/06 00:47:15;;;;;;;4.07;0.65;;;;;;;;;;5047528;28;20035;-78
2023/11/06 00:49:40;;;;;;;2.65;0.50;;;;;;;;;;5031252;28;20036;-78
2023/11/06 00:52:05;;;;;;;2.25;0.60;;;;;;;;;;5033906;28;20047;-77
2023/11/06 00:54:30;;;;;;;4.20;0.90;;;;;;;;;;5047790;28;20417;-78
2023/11/06 00:56:56;;;;;;;3.83;0.70;;;;;;;;;;5033561;28;20485;-77
2023/11/06 00:59:21;;;;;;;1.77;0.52;;;;;;;;;;5033909;28;20029;-78
2023/11/06 01:01:46;;;;;;;2.25;0.40;;;;;;;;;;5045018;28;20031;-77
2023/11/06 01:04:11;;;;;;;2.42;0.40;;;;;;;;;;5033438;28;20035;-78
2023/11/06 01:06:37;;;;;;;2.58;0.63;;;;;;;;;;5031204;28;20108;-78
2023/11/06 01:09:02;;;;;;;2.90;0.45;;;;;;;;;;5050526;28;20060;-78
2023/11/06 01:11:28;;;;;;;4.88;0.88;;;;;;;;;;5048965;28;20032;-77
2023/11/06 01:13:53;;;;;;;5.10;0.73;;;;;;;;;;5048666;28;20025;-77
2023/11/06 01:16:19;;;;;;;2.13;0.43;;;;;;;;;;5032846;28;20029;-77
2023/11/06 01:18:45;;;;;;;1.70;0.63;;;;;;;;;;5046714;28;20033;-79
2023/11/06 01:21:10;;;;;;;3.13;0.52;;;;;;;;;;5044775;28;20025;-78
2023/11/06 01:23:35;;;;;;;3.42;0.60;;;;;;;;;;5033819;28;20033;-78
2023/11/06 01:26:01;;;;;;;2.20;0.77;;;;;;;;;;5034219;28;20036;-78
2023/11/06 01:28:27;;;;;;;2.55;0.60;;;;;;;;;;5047293;28;20566;-78
2023/11/06 01:30:52;;;;;;;1.58;0.50;;;;;;;;;;5033449;28;20057;-78
2023/11/06 01:33:18;;;;;;;1.38;0.52;;;;;;;;;;5043721;28;20029;-78
2023/11/06 01:35:44;;;;;;;1.85;0.63;;;;;;;;;;5034138;28;20021;-78
2023/11/06 01:38:09;;;;;;;3.72;0.70;;;;;;;;;;5051562;28;20453;-78
2023/11/06 01:40:34;;;;;;;2.15;0.50;;;;;;;;;;5032641;28;20039;-78
2023/11/06 01:43:06;;;;;;;5.07;0.80;;;;;;;;;;5034825;28;20112;-78
2023/11/06 01:45:32;;;;;;;2.55;0.75;;;;;;;;;;5046492;28;20428;-78
2023/11/06 01:47:57;;;;;;;2.95;0.75;;;;;;;;;;5044200;28;20025;-78
2023/11/06 01:50:22;;;;;;;3.38;0.52;;;;;;;;;;5034455;28;20127;-78
2023/11/06 01:52:48;;;;;;;2.08;0.40;;;;;;;;;;5048767;28;20025;-78
2023/11/06 01:55:13;;;;;;;3.33;0.50;;;;;;;;;;5050535;28;20048;-78
2023/11/06 01:57:39;;;;;;;3.85;0.82;;;;;;;;;;5046776;28;20025;-78
2023/11/06 02:00:06;;;;;;;3.00;0.90;;;;;;;;;;5034633;28;20108;-78
2023/11/06 02:02:40;;;;;;;3.97;0.70;;;;;;;;;;5024968;28;20042;-78
2023/11/06 02:05:05;;;;;;;2.70;0.50;;;;;;;;;;5033122;28;20102;-78
2023/11/06 02:07:31;;;;;;;1.75;0.60;;;;;;;;;;5032829;28;20060;-78
2023/11/06 02:09:58;;;;;;;3.22;0.63;;;;;;;;;;5033507;28;20481;-78
2023/11/06 02:12:23;;;;;;;1.50;0.43;;;;;;;;;;5033121;28;20025;-78
2023/11/06 02:14:49;;;;;;;1.67;0.50;;;;;;;;;;5048093;28;20401;-78
2023/11/06 02:17:14;;;;;;;1.00;0.43;;;;;;;;;;5033856;28;20032;-78
2023/11/06 02:19:39;;;;;;;3.25;0.50;;;;;;;;;;5033178;28;20075;-77
2023/11/06 02:22:06;;;;;;;2.63;0.55;;;;;;;;;;5033311;28;20037;-77
2023/11/06 02:24:31;;;;;;;3.13;0.57;;;;;;;;;;5031150;28;20059;-77
2023/11/06 02:26:56;;;;;;;2.42;0.47;;;;;;;;;;5035638;28;20020;-78
2023/11/06 02:29:22;;;;;;;1.85;0.50;;;;;;;;;;5045610;28;20087;-78
2023/11/06 02:34:37;;;;;;;3.03;0.68;;;;;;;;;;4984871;28;20053;-77
2023/11/06 02:37:04;;;;;;;4.03;0.75;;;;;;;;;;4998710;28;20407;-77
2023/11/06 02:39:29;;;;;;;3.20;0.70;;;;;;;;;;4986664;28;20018;-77
2023/11/06 02:41:54;;;;;;;1.17;0.40;;;;;;;;;;4990283;28;20487;-77
2023/11/06 02:44:20;;;;;;;3.63;0.43;;;;;;;;;;5000087;28;20070;-77
2023/11/06 02:46:46;;;;;;;1.30;0.35;;;;;;;;;;4985473;28;20027;-77
2023/11/06 02:49:11;;;;;;;1.98;0.40;;;;;;;;;;5000692;28;20033;-77
2023/11/06 02:51:37;;;;;;;1.48;0.30;;;;;;;;;;4989187;28;20022;-77
2023/11/06 02:54:03;;;;;;;1.52;0.60;;;;;;;;;;4991282;28;20030;-77
2023/11/06 02:56:35;;;;;;;1.60;0.40;;;;;;;;;;5009475;28;20424;-77
2023/11/06 02:59:02;;;;;;;3.03;0.30;;;;;;;;;;4988339;28;20026;-77
2023/11/06 03:01:27;;;;;;;1.88;0.55;;;;;;;;;;5002788;28;20026;-76
2023/11/06 03:03:52;;;;;;;2.03;0.60;;;;;;;;;;5000797;28;20521;-76
2023/11/06 03:06:17;;;;;;;3.30;0.65;;;;;;;;;;4990755;28;20030;-77
2023/11/06 03:08:42;;;;;;;1.40;0.47;;;;;;;;;;4990864;28;20388;-78
2023/11/06 03:11:08;;;;;;;2.33;0.60;;;;;;;;;;4993813;28;20023;-77
2023/11/06 03:13:33;;;;;;;2.65;0.50;;;;;;;;;;4987236;28;20027;-76
2023/11/06 03:15:58;;;;;;;3.55;0.50;;;;;;;;;;4984460;28;20034;-77
2023/11/06 03:18:23;;;;;;;1.50;0.57;;;;;;;;;;4989312;28;20106;-77
2023/11/06 03:20:49;;;;;;;2.17;0.70;;;;;;;;;;4988848;28;20037;-76
2023/11/06 03:23:15;;;;;;;3.08;0.40;;;;;;;;;;4992952;28;20033;-77
2023/11/06 03:25:40;;;;;;;3.28;0.40;;;;;;;;;;4993401;28;20027;-77
2023/11/06 03:28:05;;;;;;;1.80;0.50;;;;;;;;;;4999003;28;20030;-78
2023/11/06 03:30:30;;;;;;;2.63;0.50;;;;;;;;;;4989253;28;20029;-77
2023/11/06 03:32:55;;;;;;;1.70;0.50;;;;;;;;;;4988433;28;20037;-77
2023/11/06 03:35:21;;;;;;;3.47;0.65;;;;;;;;;;4991967;28;20376;-78
2023/11/06 03:37:46;;;;;;;6.53;0.98;;;;;;;;;;5007308;28;20031;-78
2023/11/06 03:40:11;;;;;;;5.57;0.60;;;;;;;;;;4990626;28;20023;-77
2023/11/06 03:42:37;;;;;;;2.30;0.98;;;;;;;;;;4999493;28;20052;-76
2023/11/06 03:45:03;;;;;;;4.55;0.60;;;;;;;;;;4996506;28;20474;-77
2023/11/06 03:47:29;;;;;;;2.15;0.60;;;;;;;;;;4990491;28;20031;-77
2023/11/06 03:49:54;;;;;;;2.08;0.68;;;;;;;;;;4990407;28;20030;-77
2023/11/06 03:52:19;;;;;;;2.60;0.50;;;;;;;;;;4993033;28;20049;-77
2023/11/06 03:54:44;;;;;;;5.53;0.63;;;;;;;;;;4994947;28;20509;-77
2023/11/06 03:57:10;;;;;;;2.58;0.55;;;;;;;;;;4985249;28;20027;-76
2023/11/06 03:59:35;;;;;;;1.52;0.40;;;;;;;;;;4988674;28;20034;-77
2023/11/06 04:02:00;;;;;;;0.45;0.20;;;;;;;;;;4988154;28;20093;-77
2023/11/06 04:04:25;;;;;;;3.42;0.60;;;;;;;;;;4988091;28;20034;-77
2023/11/06 04:06:51;;;;;;;2.65;0.30;;;;;;;;;;4992261;28;20026;-77
2023/11/06 04:09:16;;;;;;;2.13;0.68;;;;;;;;;;4986726;28;20027;-76
2023/11/06 04:11:41;;;;;;;3.85;0.55;;;;;;;;;;4987196;28;20018;-77
2023/11/06 04:14:07;;;;;;;2.15;0.63;;;;;;;;;;4986258;28;20034;-77
2023/11/06 04:16:32;;;;;;;3.53;0.52;;;;;;;;;;4990736;28;20035;-77
2023/11/06 04:18:58;;;;;;;2.53;0.55;;;;;;;;;;5003964;28;20038;-77
2023/11/06 04:21:23;;;;;;;5.85;0.50;;;;;;;;;;5007938;28;20052;-77
2023/11/06 04:23:48;;;;;;;6.40;1.80;;;;;;;;;;4984513;28;20026;-77
2023/11/06 04:26:13;;;;;;;3.40;0.50;;;;;;;;;;4998489;28;20030;-77
2023/11/06 04:28:40;;;;;;;6.13;1.27;;;;;;;;;;4988575;28;20080;-77
2023/11/06 04:31:05;;;;;;;3.75;0.63;;;;;;;;;;4990204;28;20090;-78
2023/11/06 04:33:30;;;;;;;1.83;0.47;;;;;;;;;;4988444;28;20068;-77
2023/11/06 04:35:56;;;;;;;3.47;0.60;;;;;;;;;;4988927;28;20030;-78
2023/11/06 04:38:21;;;;;;;5.40;0.70;;;;;;;;;;4980782;28;20041;-78
2023/11/06 04:40:46;;;;;;;4.00;0.60;;;;;;;;;;4982381;28;20030;-77
2023/11/06 04:43:12;;;;;;;4.88;1.00;;;;;;;;;;4997272;28;20031;-77
2023/11/06 04:45:38;;;;;;;2.00;0.70;;;;;;;;;;5004833;28;20038;-77
2023/11/06 04:48:04;;;;;;;1.98;0.38;;;;;;;;;;4985670;28;20026;-77
2023/11/06 04:50:29;;;;;;;4.13;1.02;;;;;;;;;;4985143;28;20034;-78
2023/11/06 04:52:54;;;;;;;2.92;0.60;;;;;;;;;;4983097;28;20034;-76
2023/11/06 04:55:20;;;;;;;1.60;0.50;;;;;;;;;;4979284;28;20022;-78
2023/11/06 04:57:45;;;;;;;4.15;0.45;;;;;;;;;;4987117;28;20453;-77
2023/11/06 05:00:11;;;;;;;2.47;0.40;;;;;;;;;;4990741;28;20498;-77
2023/11/06 05:02:36;;;;;;;3.35;0.80;;;;;;;;;;5004914;28;20388;-77
2023/11/06 05:05:02;;;;;;;2.83;0.60;;;;;;;;;;4981909;28;20511;-77
2023/11/06 05:07:27;;;;;;;2.42;0.30;;;;;;;;;;4982872;28;20494;-78
2023/11/06 05:09:53;;;;;;;3.53;0.50;;;;;;;;;;4985406;28;20038;-75
2023/11/06 05:12:18;;;;;;;2.45;0.40;;;;;;;;;;4984737;28;20031;-77
2023/11/06 05:14:43;;;;;;;2.33;0.55;;;;;;;;;;4986132;28;20081;-77
2023/11/06 05:17:10;;;;;;;3.72;0.80;;;;;;;;;;4988479;28;20033;-77
2023/11/06 05:19:41;;;;;;;2.83;0.60;;;;;;;;;;4985104;28;20045;-77
2023/11/06 05:22:06;;;;;;;1.63;0.40;;;;;;;;;;4999733;28;20403;-77
2023/11/06 05:24:32;;;;;;;2.38;0.50;;;;;;;;;;4987809;28;20273;-79
2023/11/06 05:26:57;;;;;;;3.67;0.80;;;;;;;;;;4988868;28;20039;-76
2023/11/06 05:29:23;;;;;;;2.05;0.93;;;;;;;;;;5006075;28;20384;-79
2023/11/06 05:31:48;;;;;;;6.55;1.83;;;;;;;;;;4981259;28;20019;-77
2023/11/06 05:34:13;;;;;;;2.33;0.40;;;;;;;;;;4981459;28;20502;-76
2023/11/06 05:36:40;;;;;;;3.63;0.40;;;;;;;;;;4981104;28;20030;-76
2023/11/06 05:39:05;;;;;;;3.28;0.40;;;;;;;;;;4997822;28;20054;-77
2023/11/06 05:41:30;;;;;;;3.15;0.50;;;;;;;;;;4987339;28;20106;-77
2023/11/06 05:43:56;;;;;;;2.67;0.50;;;;;;;;;;4986419;28;20467;-77
2023/11/06 05:46:21;;;;;;;4.90;0.43;;;;;;;;;;4982540;28;20089;-77
2023/11/06 05:48:46;;;;;;;2.63;0.47;;;;;;;;;;4983185;28;20092;-77
2023/11/06 05:51:11;;;;;;;2.28;0.52;;;;;;;;;;4985085;28;20019;-76
2023/11/06 05:53:37;;;;;;;3.35;0.57;;;;;;;;;;4987593;28;20049;-77
2023/11/06 05:56:03;;;;;;;5.22;0.68;;;;;;;;;;4988249;28;20035;-77
2023/11/06 05:58:29;;;;;;;1.65;0.43;;;;;;;;;;4991097;28;20042;-77
2023/11/06 06:00:54;;;;;;;0.98;0.38;;;;;;;;;;4985407;28;20095;-77
2023/11/06 06:03:20;;;;;;;2.05;0.40;;;;;;;;;;5002645;28;20076;-76
2023/11/06 06:05:45;;;;;;;3.67;0.65;;;;;;;;;;4997979;28;20076;-77
2023/11/06 06:08:12;;;;;;;3.08;0.65;;;;;;;;;;4993108;28;20037;-77
2023/11/06 06:10:37;;;;;;;2.47;0.45;;;;;;;;;;4994827;28;20459;-76
2023/11/06 06:13:03;;;;;;;1.73;0.50;;;;;;;;;;5007879;28;20085;-77
2023/11/06 06:15:28;;;;;;;2.13;0.45;;;;;;;;;;4988180;28;20388;-77
2023/11/06 06:17:53;;;;;;;3.83;0.98;;;;;;;;;;4989212;28;20027;-77
2023/11/06 06:20:18;;;;;;;0.35;0.22;;;;;;;;;;4992020;28;20034;-77
2023/11/06 06:22:43;;;;;;;2.95;0.60;;;;;;;;;;5008062;28;20030;-78
2023/11/06 06:25:09;;;;;;;3.13;0.40;;;;;;;;;;4994451;28;20081;-77
2023/11/06 06:27:37;;;;;;;3.25;0.38;;;;;;;;;;5007564;28;20035;-77
2023/11/06 06:30:03;;;;;;;0.40;0.08;;;;;;;;;;4985180;28;20502;-77
2023/11/06 06:32:29;;;;;;;0.50;0.20;;;;;;;;;;4985178;28;20023;-77
2023/11/06 06:34:54;;;;;;;2.90;0.25;;;;;;;;;;4987596;28;20080;-77
2023/11/06 06:37:19;;;;;;;3.35;0.43;;;;;;;;;;4985865;28;20035;-77
2023/11/06 06:39:44;;;;;;;1.83;0.20;;;;;;;;;;4992679;28;20088;-77
2023/11/06 06:42:09;;;;;;;1.50;0.25;;;;;;;;;;4984203;28;20464;-77
2023/11/06 06:44:35;;;;;;;1.05;0.30;;;;;;;;;;4984938;28;20035;-77
2023/11/06 06:47:00;;;;;;;1.77;0.22;;;;;;;;;;5001689;28;20090;-77
2023/11/06 06:49:28;;;;;;;1.35;0.20;;;;;;;;;;4990524;28;20037;-77
2023/11/06 06:51:54;;;;;;;1.55;0.20;;;;;;;;;;4984327;28;20049;-77
2023/11/06 06:54:19;;;;;;;19.67;6.85;;;;;;;;;;4984430;28;20022;-77
2023/11/06 06:56:46;;;;;;;0.95;0.20;;;;;;;;;;4986110;28;20026;-76
2023/11/06 06:59:11;;;;;;;1.10;0.22;;;;;;;;;;4985583;28;20081;-77
2023/11/06 07:01:36;;;;;;;4.47;1.25;;;;;;;;;;4986214;28;20031;-77
2023/11/06 07:04:02;;;;;;;3.35;0.80;;;;;;;;;;4985042;28;20041;-77
2023/11/06 07:06:27;;;;;;;1.90;0.47;;;;;;;;;;4989922;28;20022;-77
2023/11/06 07:09:03;;;;;;;1.67;0.60;;;;;;;;;;5000875;28;20050;-76
2023/11/06 07:11:30;;;;;;;2.63;0.80;;;;;;;;;;4979234;28;20050;-76
2023/11/06 07:13:55;;;;;;;2.00;0.30;;;;;;;;;;4998559;28;20047;-77
2023/11/06 07:16:20;;;;;;;3.83;0.77;;;;;;;;;;4989776;28;20034;-77
2023/11/06 07:18:45;;;;;;;2.08;0.82;;;;;;;;;;4991890;28;20105;-77
2023/11/06 07:21:12;;;;;;;5.72;1.13;;;;;;;;;;5002367;28;20045;-76
2023/11/06 07:23:37;;;;;;;1.27;0.13;;;;;;;;;;4981068;28;20038;-77
2023/11/06 07:26:03;;;;;;;5.13;0.57;;;;;;;;;;4984305;28;20030;-76
2023/11/06 07:28:28;;;;;;;1.13;0.10;;;;;;;;;;4990522;28;20031;-78
2023/11/06 07:30:53;;;;;;;0.45;0.20;;;;;;;;;;5004913;28;20034;-77
2023/11/06 07:33:18;;;;;;;2.38;0.30;;;;;;;;;;5005708;28;20034;-77
2023/11/06 07:35:44;;;;;;;2.33;0.20;;;;;;;;;;4992381;28;20410;-77
2023/11/06 07:38:10;;;;;;;1.98;0.63;;;;;;;;;;4997263;28;20074;-77
2023/11/06 07:40:35;;;;;;;3.78;0.82;;;;;;;;;;4989214;28;20034;-78
2023/11/06 07:43:01;;;;;;;1.55;0.30;;;;;;;;;;4988242;28;20026;-78
2023/11/06 07:45:26;;;;;;;5.10;0.85;;;;;;;;;;4989466;28;20641;-77
2023/11/06 07:47:51;;;;;;;2.40;0.43;;;;;;;;;;4991523;28;20034;-76
2023/11/06 07:50:16;;;;;;;1.15;0.40;;;;;;;;;;5005891;28;20031;-78
2023/11/06 07:52:41;;;;;;;4.10;0.80;;;;;;;;;;4986437;28;20019;-77
2023/11/06 07:55:08;;;;;;;5.18;0.25;;;;;;;;;;4986391;28;20487;-77
2023/11/06 07:57:33;;;;;;;1.30;0.40;;;;;;;;;;4990576;28;20109;-78
2023/11/06 07:59:58;;;;;;;2.08;0.50;;;;;;;;;;4990194;28;20050;-77
2023/11/06 08:02:23;;;;;;;4.32;0.38;;;;;;;;;;4993145;28;20073;-76
2023/11/06 08:04:49;;;;;;;4.97;0.25;;;;;;;;;;4985448;28;20054;-77
2023/11/06 08:07:14;;;;;;;1.80;0.30;;;;;;;;;;4979061;28;20027;-77
2023/11/06 08:09:39;;;;;;;0.50;0.13;;;;;;;;;;4988923;28;20041;-77
2023/11/06 08:12:13;;;;;;;1.15;0.30;;;;;;;;;;4988259;28;20107;-77
2023/11/06 08:14:39;;;;;;;4.10;0.25;;;;;;;;;;4983131;28;20114;-77
2023/11/06 08:17:04;;;;;;;2.80;0.70;;;;;;;;;;4986558;28;20030;-77
2023/11/06 08:19:29;;;;;;;0.47;0.28;;;;;;;;;;4984737;28;20037;-77
2023/11/06 08:21:55;;;;;;;3.03;0.50;;;;;;;;;;4985881;28;20062;-78
2023/11/06 08:24:20;;;;;;;3.05;0.75;;;;;;;;;;4987326;28;20113;-77
2023/11/06 08:26:45;;;;;;;1.88;0.38;;;;;;;;;;5002634;28;20377;-78
2023/11/06 08:29:11;;;;;;;2.42;0.20;;;;;;;;;;4984914;28;20471;-77
2023/11/06 08:31:36;;;;;;;1.08;0.55;;;;;;;;;;4989743;28;20578;-78
2023/11/06 08:34:01;;;;;;;0.85;0.10;;;;;;;;;;4978363;28;20483;-77
2023/11/06 08:36:26;;;;;;;0.88;0.30;;;;;;;;;;4981887;28;21079;-77
2023/11/06 08:38:52;;;;;;;2.63;0.70;;;;;;;;;;4983427;28;20030;-76
2023/11/06 08:41:17;;;;;;;1.88;0.52;;;;;;;;;;4987581;28;20091;-77
2023/11/06 08:43:42;;;;;;;1.98;0.57;;;;;;;;;;4988947;28;20446;-77
2023/11/06 08:46:07;;;;;;;1.42;0.38;;;;;;;;;;4988652;28;20487;-77
2023/11/06 08:48:33;;;;;;;1.95;0.40;;;;;;;;;;4978617;28;20077;-77
2023/11/06 08:50:58;;;;;;;0.68;0.10;;;;;;;;;;4982014;28;20033;-77
2023/11/06 08:53:24;;;;;;;1.45;0.50;;;;;;;;;;4985260;28;20025;-77
2023/11/06 08:55:49;;;;;;;2.22;0.38;;;;;;;;;;4989281;28;20526;-77
2023/11/06 08:58:16;;;;;;;3.70;0.47;;;;;;;;;;4989960;28;20076;-77
2023/11/06 09:00:45;;;;;;;4.32;1.17;;;;;;;;;;4997088;28;20506;-77
2023/11/06 09:03:12;;;;;;;2.13;0.55;;;;;;;;;;4975997;28;20102;-77
2023/11/06 09:05:38;;;;;;;3.22;0.40;;;;;;;;;;4987927;28;20049;-77
2023/11/06 09:08:03;;;;;;;3.15;0.73;;;;;;;;;;5000838;28;20492;-77
2023/11/06 09:10:28;;;;;;;2.33;0.35;;;;;;;;;;4981396;28;20107;-76
2023/11/06 09:12:55;;;;;;;4.28;0.40;;;;;;;;;;4984589;28;20124;-77
2023/11/06 09:15:20;;;;;;;3.92;0.60;;;;;;;;;;4983221;28;20033;-77
2023/11/06 09:17:45;;;;;;;2.17;0.70;;;;;;;;;;4986497;28;20034;-77
2023/11/06 09:20:12;;;;;;;3.63;0.75;;;;;;;;;;4986285;28;20054;-77
2023/11/06 09:22:37;;;;;;;1.48;0.40;;;;;;;;;;4988145;28;20510;-77
2023/11/06 09:25:04;;;;;;;1.10;0.28;;;;;;;;;;4987684;28;20027;-77
2023/11/06 09:27:30;;;;;;;1.65;0.30;;;;;;;;;;4988171;28;20027;-77
2023/11/06 09:29:55;;;;;;;2.92;0.40;;;;;;;;;;4980524;28;20106;-77
2023/11/06 09:32:22;;;;;;;2.42;0.20;;;;;;;;;;4971581;28;20435;-76
2023/11/06 09:34:47;;;;;;;2.45;0.40;;;;;;;;;;4979594;28;20345;-77
2023/11/06 09:37:12;;;;;;;0.57;0.20;;;;;;;;;;4988242;28;20034;-77
2023/11/06 09:39:42;;;;;;;1.35;0.15;;;;;;;;;;4990702;28;20033;-77
2023/11/06 09:42:08;;;;;;;0.50;0.08;;;;;;;;;;4983841;28;20089;-77
2023/11/06 09:44:33;;;;;;;3.10;0.30;;;;;;;;;;4984508;28;20530;-77
2023/11/06 09:47:01;;;;;;;1.88;0.30;;;;;;;;;;4984893;28;20594;-77
2023/11/06 09:49:29;;;;;;;2.95;0.50;;;;;;;;;;4978266;28;20037;-77
2023/11/06 09:51:55;;;;;;;3.65;1.00;;;;;;;;;;4985548;28;20031;-76
2023/11/06 09:54:21;;;;;;;2.05;0.63;;;;;;;;;;4991637;28;20030;-77
2023/11/06 09:56:47;;;;;;;2.70;0.65;;;;;;;;;;4999269;28;20065;-76
2023/11/06 09:59:12;;;;;;;2.50;0.40;;;;;;;;;;4996473;28;20101;-77
2023/11/06 10:01:38;;;;;;;2.15;0.63;;;;;;;;;;4987321;28;20106;-77
2023/11/06 10:04:04;;;;;;;2.38;0.45;;;;;;;;;;4987083;28;20030;-76
2023/11/06 10:06:31;;;;;;;4.53;0.50;;;;;;;;;;5005816;28;20034;-77
2023/11/06 10:08:57;;;;;;;1.23;0.30;;;;;;;;;;4986203;28;20459;-77
2023/11/06 10:11:23;;;;;;;1.63;0.30;;;;;;;;;;4997450;28;20031;-77
2023/11/06 10:13:49;;;;;;;1.65;0.30;;;;;;;;;;4984567;28;20018;-77
2023/11/06 10:16:21;;;;;;;2.92;0.38;;;;;;;;;;4980903;28;20504;-77
2023/11/06 10:18:46;;;;;;;5.13;0.85;;;;;;;;;;4981829;28;20475;-78
2023/11/06 10:21:25;;;;;;;3.05;0.40;;;;;;;;;;4998767;28;20033;-77
2023/11/06 10:23:56;;;;;;;1.85;0.32;;;;;;;;;;4982169;28;20046;-77
2023/11/06 10:26:26;;;;;;;1.93;0.40;;;;;;;;;;4982705;28;20031;-77
2023/11/06 10:29:06;;;;;;;1.92;0.40;;;;;;;;;;4984807;28;20038;-77
2023/11/06 10:31:39;;;;;;;2.00;0.30;;;;;;;;;;4985645;28;20019;-77
2023/11/06 10:34:22;;;;;;;2.40;0.55;;;;;;;;;;4988878;28;20034;-77
2023/11/06 10:36:58;;;;;;;1.17;0.40;;;;;;;;;;4983760;28;20130;-77
2023/11/06 10:39:24;;;;;;;3.22;0.40;;;;;;;;;;4983142;28;20031;-76
2023/11/06 10:41:58;;;;;;;2.13;0.43;;;;;;;;;;4984017;28;20030;-76
2023/11/06 10:44:23;;;;;;;1.83;0.25;;;;;;;;;;4999440;28;20647;-77
2023/11/06 10:46:49;;;;;;;0.98;0.28;;;;;;;;;;5001322;28;20113;-77
2023/11/06 10:49:27;;;;;;;2.05;0.60;;;;;;;;;;5002862;28;20037;-77
2023/11/06 10:51:53;;;;;;;3.15;0.82;;;;;;;;;;4994405;28;20059;-77
2023/11/06 10:54:19;;;;;;;1.50;0.38;;;;;;;;;;4986959;28;20110;-77
2023/11/06 10:56:46;;;;;;;2.42;0.40;;;;;;;;;;4990486;28;20065;-77
2023/11/06 10:59:12;;;;;;;3.40;0.50;;;;;;;;;;5004122;28;20046;-77
2023/11/06 11:01:38;;;;;;;4.03;0.52;;;;;;;;;;4986336;28;20423;-77
2023/11/06 11:04:08;;;;;;;4.38;0.80;;;;;;;;;;4986266;28;20023;-76
2023/11/06 11:06:35;;;;;;;2.67;0.50;;;;;;;;;;5000790;28;20036;-77
2023/11/06 11:09:01;;;;;;;3.30;0.95;;;;;;;;;;4986280;28;20081;-77
2023/11/06 11:11:26;;;;;;;4.00;0.60;;;;;;;;;;4989528;28;20026;-76
2023/11/06 11:13:52;;;;;;;2.00;0.60;;;;;;;;;;4988062;28;20097;-77
2023/11/06 11:16:36;;;;;;;3.17;0.60;;;;;;;;;;4992644;28;20026;-77
2023/11/06 11:19:17;;;;;;;2.40;0.57;;;;;;;;;;4987748;28;20053;-77
2023/11/06 11:22:03;;;;;;;2.95;0.30;;;;;;;;;;4980816;28;20061;-76
2023/11/06 11:24:41;;;;;;;5.50;0.77;;;;;;;;;;4988779;28;20038;-77
2023/11/06 11:27:06;;;;;;;6.85;0.82;;;;;;;;;;4987781;28;20038;-77
2023/11/06 11:29:50;;;;;;;5.05;0.55;;;;;;;;;;4991818;28;20022;-77
2023/11/06 11:32:16;;;;;;;8.23;1.23;;;;;;;;;;4989752;28;20022;-77
2023/11/06 11:34:41;;;;;;;2.60;0.50;;;;;;;;;;4986951;28;20033;-77
2023/11/06 11:37:35;;;;;;;3.15;0.47;;;;;;;;;;4985472;28;20039;-77
2023/11/06 11:40:02;;;;;;;1.35;0.30;;;;;;;;;;4997058;28;20041;-76
2023/11/06 11:42:28;;;;;;;3.63;0.40;;;;;;;;;;5005690;28;20022;-77
2023/11/06 11:45:11;;;;;;;6.07;0.57;;;;;;;;;;4989490;28;20077;-76
2023/11/06 11:47:49;;;;;;;2.38;0.60;;;;;;;;;;4981195;28;20035;-76
2023/11/06 11:50:26;;;;;;;4.57;0.98;;;;;;;;;;4998406;28;20419;-76
2023/11/06 11:52:52;;;;;;;9.60;0.85;;;;;;;;;;4985596;28;20033;-77
2023/11/06 11:55:30;;;;;;;2.67;0.70;;;;;;;;;;4989190;28;20109;-77
2023/11/06 11:58:00;;;;;;;4.72;1.55;;;;;;;;;;4984084;28;20062;-77
2023/11/06 12:00:25;;;;;;;5.60;0.82;;;;;;;;;;4984448;28;20027;-77
2023/11/06 12:03:00;;;;;;;2.78;0.32;;;;;;;;;;4986426;28;20019;-77
2023/11/06 12:05:26;;;;;;;3.08;0.95;;;;;;;;;;4981115;28;20038;-77
2023/11/06 12:07:51;;;;;;;5.93;0.75;;;;;;;;;;5002061;28;20042;-77
2023/11/06 12:10:17;;;;;;;4.40;0.60;;;;;;;;;;4983987;28;20029;-77
2023/11/06 12:12:42;;;;;;;4.75;0.57;;;;;;;;;;4988136;28;20042;-77
2023/11/06 12:15:08;;;;;;;4.45;0.73;;;;;;;;;;4984507;28;20110;-77
2023/11/06 12:17:35;;;;;;;2.85;0.75;;;;;;;;;;4999614;28;20037;-77
2023/11/06 12:20:01;;;;;;;3.60;0.50;;;;;;;;;;5001279;28;20045;-77
2023/11/06 12:22:31;;;;;;;2.55;0.52;;;;;;;;;;4981868;28;20022;-77
2023/11/06 12:24:56;;;;;;;3.95;0.88;;;;;;;;;;4985430;28;20033;-77
2023/11/06 12:27:30;;;;;;;2.67;0.77;;;;;;;;;;4989384;28;20034;-77
2023/11/06 12:30:00;;;;;;;4.05;0.95;;;;;;;;;;4984711;28;20042;-77
2023/11/06 12:32:27;;;;;;;3.78;0.38;;;;;;;;;;4998676;28;20034;-76
2023/11/06 12:35:21;;;;;;;3.83;0.80;;;;;;;;;;4987676;28;20077;-77
2023/11/06 12:37:47;;;;;;;4.68;1.20;;;;;;;;;;4984402;28;20042;-77
2023/11/06 12:40:13;;;;;;;2.67;0.50;;;;;;;;;;4990930;28;20403;-77
2023/11/06 12:42:40;;;;;;;4.75;0.50;;;;;;;;;;4988563;28;20034;-77
2023/11/06 12:45:23;;;;;;;3.40;0.55;;;;;;;;;;4981842;28;20042;-77
2023/11/06 12:47:50;;;;;;;1.83;0.40;;;;;;;;;;4995762;28;20105;-77
2023/11/06 12:50:17;;;;;;;2.67;0.57;;;;;;;;;;4982271;28;20027;-77
2023/11/06 12:52:42;;;;;;;9.90;0.50;;;;;;;;;;4988225;28;20142;-77
2023/11/06 12:55:10;;;;;;;2.53;0.50;;;;;;;;;;4991094;28;20500;-77
2023/11/06 12:57:36;;;;;;;2.72;0.50;;;;;;;;;;4985319;28;20076;-77
2023/11/06 13:00:05;;;;;;;5.40;0.93;;;;;;;;;;4979965;28;20031;-76
2023/11/06 13:02:32;;;;;;;2.78;0.77;;;;;;;;;;4995296;28;20114;-77
2023/11/06 13:04:58;;;;;;;1.50;0.22;;;;;;;;;;4979559;28;20031;-76
2023/11/06 13:07:23;;;;;;;3.60;0.63;;;;;;;;;;4989139;28;20457;-77
2023/11/06 13:09:48;;;;;;;3.20;0.70;;;;;;;;;;4990298;28;20101;-77
2023/11/06 13:12:13;;;;;;;2.85;0.40;;;;;;;;;;4978978;28;20029;-76
2023/11/06 13:14:39;;;;;;;6.78;0.98;;;;;;;;;;4985882;28;20444;-77
2023/11/06 13:17:07;;;;;;;5.25;0.60;;;;;;;;;;4986388;28;20030;-77
2023/11/06 13:19:32;;;;;;;4.70;0.40;;;;;;;;;;4988326;28;20026;-77
2023/11/06 13:21:58;;;;;;;5.10;0.50;;;;;;;;;;4985420;28;20046;-76
2023/11/06 13:24:30;;;;;;;5.55;0.73;;;;;;;;;;4994050;28;20041;-76
2023/11/06 13:26:56;;;;;;;6.75;0.60;;;;;;;;;;4981379;28;20580;-77
2023/11/06 13:29:22;;;;;;;3.38;0.45;;;;;;;;;;4984821;28;20450;-76
2023/11/06 13:31:48;;;;;;;4.18;0.57;;;;;;;;;;5002717;28;20107;-77
2023/11/06 13:34:13;;;;;;;4.72;0.80;;;;;;;;;;5000772;28;20042;-77
2023/11/06 13:36:48;;;;;;;3.70;1.05;;;;;;;;;;4985251;28;20113;-77
2023/11/06 13:39:14;;;;;;;3.13;0.40;;;;;;;;;;4985080;28;20038;-77
2023/11/06 13:41:39;;;;;;;4.43;0.40;;;;;;;;;;4980512;28;20046;-77
2023/11/06 13:44:09;;;;;;;2.20;0.35;;;;;;;;;;4983019;28;20523;-77
2023/11/06 13:46:34;;;;;;;5.32;0.52;;;;;;;;;;4988082;28;20034;-76
2023/11/06 13:49:00;;;;;;;5.55;0.55;;;;;;;;;;5002875;28;20149;-77
2023/11/06 13:51:26;;;;;;;3.88;0.45;;;;;;;;;;4991397;28;20077;-77
2023/11/06 13:53:51;;;;;;;3.63;0.70;;;;;;;;;;4984091;28;20528;-77
2023/11/06 13:56:19;;;;;;;2.60;0.75;;;;;;;;;;4979817;28;20066;-76
2023/11/06 13:58:46;;;;;;;3.95;0.70;;;;;;;;;;4988448;28;20030;-77
2023/11/06 14:01:12;;;;;;;4.43;0.68;;;;;;;;;;4986353;28;20061;-77
2023/11/06 14:03:38;;;;;;;3.80;0.68;;;;;;;;;;4989698;28;20030;-77
2023/11/06 14:06:08;;;;;;;2.58;0.40;;;;;;;;;;4989935;28;20039;-77
2023/11/06 14:08:34;;;;;;;4.20;0.80;;;;;;;;;;4985077;28;20033;-77
2023/11/06 14:11:01;;;;;;;6.20;0.75;;;;;;;;;;4983669;28;20498;-77
2023/11/06 14:13:26;;;;;;;4.32;0.50;;;;;;;;;;4988337;28;20483;-77
2023/11/06 14:15:52;;;;;;;3.05;0.77;;;;;;;;;;4988073;28;20044;-77
2023/11/06 14:18:24;;;;;;;2.30;0.30;;;;;;;;;;4991310;28;20105;-78
2023/11/06 14:20:53;;;;;;;;;;;;;;;;;;4974131;28;20035;-77
2023/11/06 14:23:24;;;;;;;3.53;0.70;;;;;;;;;;4994451;28;19949;-77
2023/11/06 14:25:55;;;;;;;2.75;0.50;;;;;;;;;;4988774;28;20085;-77
2023/11/06 14:28:20;;;;;;;4.75;0.50;;;;;;;;;;4992030;28;20057;-77
2023/11/06 14:30:49;;;;;;;3.00;0.55;;;;;;;;;;5009239;28;20080;-77
2023/11/06 14:33:14;;;;;;;3.30;0.40;;;;;;;;;;4988318;28;20038;-77
2023/11/06 14:35:39;;;;;;;4.40;0.65;;;;;;;;;;4987185;28;20038;-77
2023/11/06 14:38:11;;;;;;;3.75;0.35;;;;;;;;;;4987326;28;20035;-76
2023/11/06 14:40:43;;;;;;;4.03;0.80;;;;;;;;;;5003142;28;20045;-77
2023/11/06 14:43:13;;;;;;;;;;;;;;;;;;4991464;28;20041;-77